createdAt,value
2023-04-08T00:01:48.737Z,6.13
2023-04-08T00:04:17.447Z,6.27
2023-04-08T00:06:52.580Z,7.13
2023-04-08T00:09:31.174Z,7.27
2023-04-08T00:11:59.650Z,7.40
2023-04-08T00:14:34.577Z,6.77
2023-04-08T00:17:02.774Z,6.83
2023-04-08T00:19:43.600Z,7.50
2023-04-08T00:22:18.763Z,7.37
2023-04-08T00:24:54.563Z,7.30
2023-04-08T00:27:31.572Z,7.93
2023-04-08T00:30:00.318Z,8.07
2023-04-08T00:32:35.627Z,7.43
2023-04-08T00:35:04.458Z,7.40
2023-04-08T00:37:32.821Z,8.40
2023-04-08T00:40:08.596Z,9.20
2023-04-08T00:42:36.968Z,8.50
2023-04-08T00:45:11.691Z,8.77
2023-04-08T00:47:39.989Z,8.10
2023-04-08T00:50:17.608Z,9.40
2023-04-08T00:52:45.771Z,9.20
2023-04-08T00:55:15.411Z,8.77
2023-04-08T00:57:50.608Z,9.63
2023-04-08T01:00:18.880Z,9.10
2023-04-08T01:02:58.742Z,9.13
2023-04-08T01:05:44.021Z,8.97
2023-04-08T01:08:20.630Z,8.77
2023-04-08T01:10:52.902Z,9.63
2023-04-08T01:13:31.772Z,9.20
2023-04-08T01:16:01.021Z,9.07
2023-04-08T01:18:43.651Z,9.17
2023-04-08T01:21:19.896Z,9.57
2023-04-08T01:24:05.646Z,9.73
2023-04-08T01:26:36.715Z,9.97
2023-04-08T01:29:12.692Z,9.83
2023-04-08T01:31:49.704Z,10.07
2023-04-08T01:34:21.106Z,9.70
2023-04-08T01:36:58.566Z,10.23
2023-04-08T01:39:27.757Z,9.53
2023-04-08T01:42:05.694Z,10.07
2023-04-08T01:44:34.908Z,9.93
2023-04-08T01:47:10.788Z,10.43
2023-04-08T01:49:45.693Z,10.43
2023-04-08T01:52:15.837Z,9.53
2023-04-08T01:54:50.670Z,10.03
2023-04-08T01:57:25.336Z,9.57
2023-04-08T02:00:00.676Z,9.33
2023-04-08T02:02:35.911Z,9.80
2023-04-08T02:05:04.713Z,9.67
2023-04-08T02:07:39.677Z,9.90
2023-04-08T02:10:09.050Z,9.80
2023-04-08T02:12:45.703Z,10.50
2023-04-08T02:15:14.979Z,9.90
2023-04-08T02:17:53.713Z,9.60
2023-04-08T02:20:35.907Z,10.33
2023-04-08T02:23:15.710Z,10.10
2023-04-08T02:25:49.505Z,9.87
2023-04-08T02:28:26.676Z,9.73
2023-04-08T02:30:55.737Z,10.53
2023-04-08T02:33:30.860Z,9.70
2023-04-08T02:35:59.921Z,9.97
2023-04-08T02:38:36.720Z,9.70
2023-04-08T02:41:11.692Z,10.50
2023-04-08T02:43:41.258Z,9.93
2023-04-08T02:46:17.887Z,10.60
2023-04-08T02:48:45.996Z,10.77
2023-04-08T02:51:20.721Z,10.10
2023-04-08T02:53:49.023Z,11.43
2023-04-08T02:56:23.743Z,10.90
2023-04-08T02:58:59.745Z,10.50
2023-04-08T03:01:27.898Z,11.03
2023-04-08T03:04:02.836Z,10.13
2023-04-08T03:06:37.726Z,10.00
2023-04-08T03:09:06.233Z,10.90
2023-04-08T03:11:40.737Z,11.10
2023-04-08T03:14:10.190Z,10.27
2023-04-08T03:16:44.775Z,10.50
2023-04-08T03:19:22.084Z,11.23
2023-04-08T03:21:50.151Z,11.57
2023-04-08T03:24:24.745Z,11.47
2023-04-08T03:26:53.123Z,11.20
2023-04-08T03:29:28.756Z,10.63
2023-04-08T03:32:03.807Z,11.00
2023-04-08T03:34:31.946Z,11.40
2023-04-08T03:37:07.272Z,10.90
2023-04-08T03:39:35.373Z,11.13
2023-04-08T03:42:09.761Z,11.97
2023-04-08T03:44:39.263Z,11.43
2023-04-08T03:47:14.773Z,11.77
2023-04-08T03:49:49.777Z,11.57
2023-04-08T03:52:18.124Z,11.77
2023-04-08T03:54:52.959Z,11.50
2023-04-08T03:57:21.282Z,12.00
2023-04-08T03:59:57.836Z,11.47
2023-04-08T04:02:26.363Z,11.23
2023-04-08T04:05:00.876Z,11.60
2023-04-08T04:07:35.790Z,11.60
2023-04-08T04:10:03.960Z,12.10
2023-04-08T04:12:38.776Z,12.17
2023-04-08T04:15:09.408Z,12.90
2023-04-08T04:17:43.844Z,12.57
2023-04-08T04:20:26.788Z,12.13
2023-04-08T04:23:01.860Z,11.83
2023-04-08T04:25:36.839Z,11.87
2023-04-08T04:28:11.814Z,12.07
2023-04-08T04:30:41.597Z,11.93
2023-04-08T04:33:15.804Z,12.73
2023-04-08T04:35:50.868Z,12.33
2023-04-08T04:38:19.084Z,12.53
2023-04-08T04:40:53.901Z,12.40
2023-04-08T04:43:21.962Z,13.40
2023-04-08T04:45:51.696Z,14.57
2023-04-08T04:48:26.967Z,14.40
2023-04-08T04:50:58.134Z,14.10
2023-04-08T04:53:32.840Z,13.97
2023-04-08T04:56:02.141Z,15.47
2023-04-08T04:58:37.791Z,16.07
2023-04-08T05:01:14.052Z,14.97
2023-04-08T05:03:42.550Z,15.07
2023-04-08T05:06:17.839Z,14.97
2023-04-08T05:08:46.095Z,15.03
2023-04-08T05:11:20.824Z,14.70
2023-04-08T05:13:49.016Z,14.40
2023-04-08T05:16:24.917Z,14.73
2023-04-08T05:19:03.192Z,14.60
2023-04-08T05:21:38.309Z,14.20
2023-04-08T05:24:12.992Z,14.60
2023-04-08T05:26:41.271Z,14.67
2023-04-08T05:29:17.857Z,14.40
2023-04-08T05:31:53.898Z,14.57
2023-04-08T05:34:23.148Z,14.83
2023-04-08T05:36:58.857Z,14.17
2023-04-08T05:39:27.130Z,15.60
2023-04-08T05:42:01.890Z,14.67
2023-04-08T05:44:30.442Z,14.40
2023-04-08T05:47:07.938Z,14.33
2023-04-08T05:49:36.487Z,14.80
2023-04-08T05:52:04.796Z,14.73
2023-04-08T05:54:40.054Z,14.77
2023-04-08T05:57:10.266Z,14.10
2023-04-08T05:59:44.877Z,13.73
2023-04-08T06:02:14.446Z,14.40
2023-04-08T06:04:48.946Z,13.43
2023-04-08T06:07:17.034Z,14.20
2023-04-08T06:09:51.872Z,14.50
2023-04-08T06:12:19.971Z,15.30
2023-04-08T06:15:01.905Z,15.40
2023-04-08T06:17:38.328Z,16.63
2023-04-08T06:20:13.024Z,15.93
2023-04-08T06:22:47.917Z,15.93
2023-04-08T06:25:16.018Z,16.40
2023-04-08T06:27:50.896Z,16.47
2023-04-08T06:30:19.342Z,16.70
2023-04-08T06:32:55.933Z,16.87
2023-04-08T06:35:32.275Z,16.43
2023-04-08T06:38:00.904Z,16.47
2023-04-08T06:40:35.986Z,15.90
2023-04-08T06:43:04.102Z,16.80
2023-04-08T06:45:39.217Z,14.70
2023-04-08T06:48:09.504Z,14.27
2023-04-08T06:50:43.929Z,13.60
2023-04-08T06:53:12.068Z,12.03
2023-04-08T06:55:46.925Z,11.60
2023-04-08T06:58:15.012Z,8.33
2023-04-08T07:00:49.958Z,11.77
2023-04-08T07:03:19.709Z,10.07
2023-04-08T07:05:55.952Z,10.77
2023-04-08T07:08:24.313Z,10.10
2023-04-08T07:10:59.970Z,9.20
2023-04-08T07:13:28.110Z,9.87
2023-04-08T07:16:02.982Z,7.63
2023-04-08T07:18:39.110Z,8.33
2023-04-08T07:21:19.956Z,10.77
2023-04-08T07:23:54.998Z,8.97
2023-04-08T07:26:23.452Z,10.03
2023-04-08T07:28:57.984Z,9.97
2023-04-08T07:31:26.468Z,8.03
2023-04-08T07:34:03.023Z,9.23
2023-04-08T07:36:37.970Z,10.10
2023-04-08T07:39:06.401Z,10.20
2023-04-08T07:41:40.994Z,10.47
2023-04-08T07:44:09.126Z,11.67
2023-04-08T07:46:45.972Z,12.43
2023-04-08T07:49:15.449Z,11.40
2023-04-08T07:51:49.987Z,9.90
2023-04-08T07:54:24.997Z,10.17
2023-04-08T07:56:53.161Z,7.47
2023-04-08T07:59:27.979Z,8.30
2023-04-08T08:01:56.569Z,9.03
2023-04-08T08:04:33.137Z,9.27
2023-04-08T08:07:01.392Z,8.77
2023-04-08T08:09:36.001Z,8.20
2023-04-08T08:12:04.208Z,8.07
2023-04-08T08:14:39.019Z,7.70
2023-04-08T08:17:07.214Z,7.47
2023-04-08T08:19:49.988Z,7.70
2023-04-08T08:22:18.164Z,8.73
2023-04-08T08:24:52.990Z,9.23
2023-04-08T08:27:28.034Z,9.43
2023-04-08T08:29:57.094Z,8.80
2023-04-08T08:32:35.011Z,8.33
2023-04-08T08:35:04.828Z,9.60
2023-04-08T08:37:39.007Z,9.10
2023-04-08T08:40:22.099Z,8.50
2023-04-08T08:42:53.770Z,9.77
2023-04-08T08:45:29.061Z,8.73
2023-04-08T08:47:57.915Z,8.00
2023-04-08T08:50:34.026Z,8.43
2023-04-08T08:53:09.071Z,9.13
2023-04-08T08:56:02.149Z,8.90
2023-04-08T08:58:35.028Z,8.87
2023-04-08T09:01:03.143Z,9.00
2023-04-08T09:03:38.274Z,9.20
2023-04-08T09:06:07.890Z,8.87
2023-04-08T09:08:44.047Z,9.33
2023-04-08T09:11:14.071Z,10.93
2023-04-08T09:13:49.326Z,10.93
2023-04-08T09:16:19.785Z,10.93
2023-04-08T09:18:56.073Z,10.87
2023-04-08T09:21:32.586Z,10.93
2023-04-08T09:24:07.083Z,10.80
2023-04-08T09:26:42.074Z,10.80
2023-04-08T09:29:24.112Z,11.07
2023-04-08T09:32:03.191Z,10.40
2023-04-08T09:34:34.109Z,10.37
2023-04-08T09:37:10.098Z,10.77
2023-04-08T09:39:38.271Z,11.13
2023-04-08T09:42:19.079Z,10.80
2023-04-08T09:44:55.128Z,11.17
2023-04-08T09:47:30.039Z,11.90
2023-04-08T09:50:11.085Z,10.90
2023-04-08T09:52:46.775Z,11.87
2023-04-08T09:55:23.527Z,11.30
2023-04-08T09:57:54.308Z,11.17
2023-04-08T10:00:33.193Z,11.67
2023-04-08T10:03:08.179Z,11.37
2023-04-08T10:05:45.122Z,11.67
2023-04-08T10:08:15.197Z,13.10
2023-04-08T10:10:51.141Z,13.30
2023-04-08T10:13:19.674Z,12.07
2023-04-08T10:15:55.191Z,12.10
2023-04-08T10:18:33.940Z,12.33
2023-04-08T10:21:50.150Z,12.00
2023-04-08T10:24:31.166Z,12.07
2023-04-08T10:26:59.260Z,12.00
2023-04-08T10:29:41.122Z,11.93
2023-04-08T10:32:09.281Z,11.47
2023-04-08T10:35:01.124Z,10.37
2023-04-08T10:37:36.504Z,12.33
2023-04-08T10:40:15.113Z,12.47
2023-04-08T10:42:43.212Z,10.97
2023-04-08T10:45:20.548Z,14.00
2023-04-08T10:47:48.994Z,15.47
2023-04-08T10:50:26.180Z,17.10
2023-04-08T10:52:55.669Z,16.20
2023-04-08T10:55:33.138Z,14.53
2023-04-08T10:58:07.880Z,14.73
2023-04-08T11:00:45.146Z,14.97
2023-04-08T11:03:15.689Z,14.30
2023-04-08T11:05:50.151Z,14.73
2023-04-08T11:08:20.901Z,13.97
2023-04-08T11:10:58.175Z,15.67
2023-04-08T11:13:34.152Z,15.73
2023-04-08T11:16:02.949Z,16.67
2023-04-08T11:18:39.189Z,17.03
2023-04-08T11:21:14.092Z,16.00
2023-04-08T11:23:50.834Z,15.73
2023-04-08T11:26:21.137Z,16.53
2023-04-08T11:28:58.196Z,14.37
2023-04-08T11:31:26.381Z,14.27
2023-04-08T11:34:04.169Z,14.27
2023-04-08T11:36:32.393Z,13.77
2023-04-08T11:39:07.177Z,13.87
2023-04-08T11:41:47.170Z,14.87
2023-04-08T11:44:15.365Z,14.47
2023-04-08T11:47:05.190Z,13.63
2023-04-08T11:49:45.838Z,14.17
2023-04-08T11:52:21.198Z,14.53
2023-04-08T11:54:50.221Z,13.27
2023-04-08T11:57:36.212Z,14.47
2023-04-08T12:00:05.720Z,13.40
2023-04-08T12:02:40.320Z,14.03
2023-04-08T12:05:10.672Z,13.97
2023-04-08T12:07:49.206Z,13.60
2023-04-08T12:10:17.414Z,13.87
2023-04-08T12:12:54.265Z,12.37
2023-04-08T12:15:22.381Z,12.87
2023-04-08T12:17:57.297Z,12.93
2023-04-08T12:20:32.680Z,13.07
2023-04-08T12:23:14.224Z,12.83
2023-04-08T12:25:42.308Z,13.37
2023-04-08T12:28:18.228Z,12.70
2023-04-08T12:30:46.869Z,13.07
2023-04-08T12:33:21.257Z,11.80
2023-04-08T12:35:49.361Z,12.33
2023-04-08T12:38:24.246Z,12.50
2023-04-08T12:40:52.384Z,13.17
2023-04-08T12:43:28.253Z,12.93
2023-04-08T12:46:03.358Z,13.63
2023-04-08T12:48:38.283Z,12.27
2023-04-08T12:51:06.469Z,11.03
2023-04-08T12:53:41.247Z,11.83
2023-04-08T12:56:09.328Z,11.83
2023-04-08T12:58:45.276Z,11.43
2023-04-08T13:01:13.519Z,11.77
2023-04-08T13:03:49.422Z,11.00
2023-04-08T13:06:17.635Z,11.70
2023-04-08T13:08:52.495Z,10.33
2023-04-08T13:11:21.402Z,11.40
2023-04-08T13:13:57.325Z,10.93
2023-04-08T13:16:25.765Z,11.40
2023-04-08T13:19:00.290Z,11.40
2023-04-08T13:21:34.485Z,11.27
2023-04-08T13:24:09.297Z,11.20
2023-04-08T13:26:37.413Z,11.20
2023-04-08T13:29:07.017Z,12.03
2023-04-08T13:31:42.329Z,10.97
2023-04-08T13:34:10.461Z,11.20
2023-04-08T13:36:45.350Z,9.80
2023-04-08T13:39:13.709Z,10.30
2023-04-08T13:41:48.312Z,11.00
2023-04-08T13:44:18.459Z,10.47
2023-04-08T13:46:53.318Z,9.97
2023-04-08T13:49:21.581Z,10.90
2023-04-08T13:51:56.294Z,9.53
2023-04-08T13:54:31.345Z,10.10
2023-04-08T13:56:59.616Z,8.87
2023-04-08T13:59:35.383Z,10.20
2023-04-08T14:02:03.804Z,10.43
2023-04-08T14:04:38.419Z,9.73
2023-04-08T14:07:06.590Z,10.07
2023-04-08T14:09:42.339Z,9.13
2023-04-08T14:12:17.364Z,9.70
2023-04-08T14:14:46.871Z,9.33
2023-04-08T14:17:22.355Z,10.23
2023-04-08T14:20:12.359Z,9.57
2023-04-08T14:22:50.416Z,9.53
2023-04-08T14:25:19.095Z,9.23
2023-04-08T14:27:57.943Z,9.70
2023-04-08T14:30:35.362Z,9.80
2023-04-08T14:33:05.257Z,9.53
2023-04-08T14:35:40.420Z,8.90
2023-04-08T14:38:08.536Z,8.80
2023-04-08T14:40:43.353Z,7.70
2023-04-08T14:43:12.809Z,7.50
2023-04-08T14:45:48.367Z,7.87
2023-04-08T14:48:18.574Z,8.20
2023-04-08T14:50:53.353Z,6.90
2023-04-08T14:53:21.473Z,8.00
2023-04-08T14:55:56.368Z,7.23
2023-04-08T14:58:25.039Z,7.40
2023-04-08T15:01:03.468Z,8.20
2023-04-08T15:03:38.504Z,8.33
2023-04-08T15:06:07.220Z,8.03
2023-04-08T15:08:42.397Z,7.53
2023-04-08T15:11:14.527Z,6.50
2023-04-08T15:13:49.466Z,7.23
2023-04-08T15:16:25.418Z,7.40
2023-04-08T15:18:53.837Z,7.53
2023-04-08T15:21:41.386Z,8.73
2023-04-08T15:24:16.401Z,8.27
2023-04-08T15:26:44.790Z,7.70
2023-04-08T15:29:19.433Z,8.40
2023-04-08T15:31:48.879Z,8.63
2023-04-08T15:34:23.400Z,8.00
2023-04-08T15:36:51.617Z,8.67
2023-04-08T15:39:26.432Z,8.87
2023-04-08T15:41:54.948Z,9.10
2023-04-08T15:44:30.435Z,8.90
2023-04-08T15:47:00.174Z,8.90
2023-04-08T15:49:34.409Z,9.10
2023-04-08T15:52:09.417Z,9.57
2023-04-08T15:54:37.539Z,9.30
2023-04-08T15:57:12.451Z,9.27
2023-04-08T15:59:47.466Z,9.70
2023-04-08T16:02:17.335Z,9.20
2023-04-08T16:04:52.430Z,8.73
2023-04-08T16:07:27.425Z,9.10
2023-04-08T16:09:55.714Z,8.97
2023-04-08T16:12:32.452Z,8.73
2023-04-08T16:15:00.562Z,8.97
2023-04-08T16:17:36.481Z,8.63
2023-04-08T16:20:26.376Z,8.47
2023-04-08T16:23:01.468Z,8.50
2023-04-08T16:25:36.570Z,8.53
2023-04-08T16:28:04.717Z,8.27
2023-04-08T16:30:39.477Z,8.43
2023-04-08T16:33:08.980Z,7.87
2023-04-08T16:35:43.504Z,8.30
2023-04-08T16:38:11.946Z,8.07
2023-04-08T16:40:40.076Z,7.67
2023-04-08T16:43:15.708Z,7.97
2023-04-08T16:45:43.923Z,7.40
2023-04-08T16:48:20.478Z,7.60
2023-04-08T16:50:48.542Z,7.10
2023-04-08T16:53:23.464Z,7.00
2023-04-08T16:55:51.560Z,7.07
2023-04-08T16:58:26.470Z,7.50
2023-04-08T17:00:54.674Z,7.67
2023-04-08T17:03:30.544Z,7.17
2023-04-08T17:06:07.302Z,7.43
2023-04-08T17:08:42.514Z,7.63
2023-04-08T17:11:12.402Z,7.57
2023-04-08T17:13:48.506Z,7.20
2023-04-08T17:16:25.648Z,7.00
2023-04-08T17:18:55.558Z,6.43
2023-04-08T17:21:30.510Z,6.80
2023-04-08T17:24:05.427Z,6.37
2023-04-08T17:26:40.504Z,6.77
2023-04-08T17:29:08.689Z,6.70
2023-04-08T17:31:43.583Z,6.20
2023-04-08T17:34:13.090Z,6.67
2023-04-08T17:36:47.513Z,10.03
2023-04-08T17:39:16.355Z,10.60
2023-04-08T17:41:50.533Z,11.73
2023-04-08T17:44:18.726Z,11.13
2023-04-08T17:46:53.513Z,11.00
2023-04-08T17:49:23.213Z,11.67
2023-04-08T17:51:51.620Z,11.97
2023-04-08T17:54:26.574Z,12.13
2023-04-08T17:56:54.676Z,12.57
2023-04-08T17:59:29.699Z,12.33
2023-04-08T18:01:57.930Z,12.73
2023-04-08T18:04:35.559Z,12.10
2023-04-08T18:07:05.367Z,12.50
2023-04-08T18:09:40.552Z,12.13
2023-04-08T18:12:08.788Z,11.87
2023-04-08T18:14:43.571Z,12.73
2023-04-08T18:17:18.574Z,12.20
2023-04-08T18:19:48.089Z,12.47
2023-04-08T18:22:29.731Z,11.97
2023-04-08T18:24:57.819Z,11.87
2023-04-08T18:27:32.589Z,11.87
2023-04-08T18:30:00.735Z,12.03
2023-04-08T18:32:35.608Z,11.90
2023-04-08T18:35:12.580Z,12.10
2023-04-08T18:37:40.659Z,11.40
2023-04-08T18:40:16.593Z,11.90
2023-04-08T18:42:44.713Z,12.30
2023-04-08T18:45:19.573Z,12.90
2023-04-08T18:47:54.649Z,11.33
2023-04-08T18:50:24.352Z,12.10
2023-04-08T18:52:59.629Z,11.90
2023-04-08T18:55:27.947Z,12.27
2023-04-08T18:58:02.626Z,12.30
2023-04-08T19:00:30.748Z,12.70
2023-04-08T19:03:07.426Z,12.80
2023-04-08T19:05:38.476Z,12.97
2023-04-08T19:08:13.609Z,12.83
2023-04-08T19:10:48.668Z,12.93
2023-04-08T19:13:16.779Z,13.33
2023-04-08T19:15:51.648Z,13.27
2023-04-08T19:18:19.779Z,14.37
2023-04-08T19:20:57.666Z,12.87
2023-04-08T19:23:32.898Z,12.73
2023-04-08T19:26:11.639Z,13.07
2023-04-08T19:28:39.862Z,12.63
2023-04-08T19:31:22.655Z,12.83
2023-04-08T19:33:51.195Z,12.67
2023-04-08T19:36:27.637Z,13.20
2023-04-08T19:38:55.882Z,12.17
2023-04-08T19:41:30.651Z,12.90
2023-04-08T19:43:58.749Z,12.87
2023-04-08T19:46:33.676Z,13.40
2023-04-08T19:49:01.985Z,13.97
2023-04-08T19:51:39.661Z,14.07
2023-04-08T19:54:07.729Z,13.37
2023-04-08T19:56:43.683Z,13.83
2023-04-08T19:59:18.670Z,13.73
2023-04-08T20:01:46.818Z,14.03
2023-04-08T20:04:21.842Z,14.23
2023-04-08T20:06:51.472Z,14.63
2023-04-08T20:09:25.649Z,14.53
2023-04-08T20:11:53.709Z,13.20
2023-04-08T20:14:28.649Z,12.77
2023-04-08T20:16:56.978Z,12.93
2023-04-08T20:19:31.696Z,12.80
2023-04-08T20:22:07.854Z,12.50
2023-04-08T20:24:49.685Z,12.13
2023-04-08T20:27:18.814Z,12.13
2023-04-08T20:29:53.692Z,12.17
2023-04-08T20:32:21.832Z,11.73
2023-04-08T20:34:56.669Z,11.80
2023-04-08T20:37:26.439Z,10.83
2023-04-08T20:40:01.699Z,10.63
2023-04-08T20:42:29.848Z,9.77
2023-04-08T20:44:57.948Z,11.03
2023-04-08T20:47:32.716Z,10.63
2023-04-08T20:50:01.220Z,10.70
2023-04-08T20:52:37.720Z,10.00
2023-04-08T20:55:06.745Z,10.13
2023-04-08T20:57:41.769Z,10.57
2023-04-08T21:00:11.143Z,10.13
2023-04-08T21:02:45.885Z,10.10
2023-04-08T21:05:20.701Z,10.50
2023-04-08T21:07:50.165Z,10.83
2023-04-08T21:10:24.734Z,10.07
2023-04-08T21:13:06.924Z,9.80
2023-04-08T21:15:48.767Z,10.03
2023-04-08T21:18:17.174Z,10.10
2023-04-08T21:20:51.711Z,9.83
2023-04-08T21:23:34.734Z,9.77
2023-04-08T21:26:03.678Z,9.43
2023-04-08T21:28:38.788Z,9.40
2023-04-08T21:31:16.737Z,9.67
2023-04-08T21:33:44.841Z,10.10
2023-04-08T21:36:19.749Z,10.47
2023-04-08T21:38:55.738Z,10.07
2023-04-08T21:41:24.337Z,10.43
2023-04-08T21:43:59.757Z,10.30
2023-04-08T21:46:27.830Z,10.10
2023-04-08T21:49:02.741Z,10.70
2023-04-08T21:51:37.749Z,10.87
2023-04-08T21:54:07.177Z,10.20
2023-04-08T21:56:41.782Z,10.73
2023-04-08T21:59:16.750Z,11.57
2023-04-08T22:01:44.945Z,11.40
2023-04-08T22:04:19.805Z,11.07
2023-04-08T22:06:49.557Z,12.53
2023-04-08T22:09:25.783Z,11.90
2023-04-08T22:11:53.885Z,11.87
2023-04-08T22:14:28.774Z,11.40
2023-04-08T22:16:56.993Z,11.40
2023-04-08T22:19:31.773Z,11.33
2023-04-08T22:22:06.795Z,11.23
2023-04-08T22:24:43.776Z,10.60
2023-04-08T22:27:12.112Z,9.90
2023-04-08T22:29:46.800Z,11.40
2023-04-08T22:32:21.768Z,11.27
2023-04-08T22:34:49.971Z,11.50
2023-04-08T22:37:24.765Z,12.70
2023-04-08T22:39:54.372Z,11.77
2023-04-08T22:42:28.816Z,11.87
2023-04-08T22:44:57.078Z,12.47
2023-04-08T22:47:31.887Z,11.93
2023-04-08T22:50:00.031Z,12.53
2023-04-08T22:52:34.939Z,13.10
2023-04-08T22:55:04.511Z,12.47
2023-04-08T22:57:38.837Z,12.23
2023-04-08T23:00:08.482Z,12.60
2023-04-08T23:02:43.896Z,12.07
2023-04-08T23:05:12.154Z,12.70
2023-04-08T23:07:46.816Z,12.37
2023-04-08T23:10:16.393Z,12.87
2023-04-08T23:12:50.830Z,12.57
2023-04-08T23:15:19.359Z,13.17
2023-04-08T23:17:53.881Z,12.47
2023-04-08T23:20:23.972Z,13.00
2023-04-08T23:23:05.836Z,13.07
2023-04-08T23:25:42.147Z,13.23
2023-04-08T23:28:16.833Z,13.37
2023-04-08T23:30:44.935Z,13.77
2023-04-08T23:33:19.848Z,13.60
2023-04-08T23:35:48.020Z,14.17
2023-04-08T23:38:22.864Z,13.33
2023-04-08T23:40:52.694Z,13.90
2023-04-08T23:43:26.853Z,14.67
2023-04-08T23:45:54.880Z,14.87
2023-04-08T23:48:29.842Z,14.80
2023-04-08T23:50:57.898Z,14.47
2023-04-08T23:53:25.963Z,15.00
2023-04-08T23:56:01.867Z,14.20
2023-04-08T23:58:30.004Z,15.37
